sensor_id;sensor_type;location;lat;lon;timestamp;temperature;humidity
36924;DHT22;22841;50.252;18.688;2023-03-03T00:00:53;0.60;15.90
36924;DHT22;22841;50.252;18.688;2023-03-03T00:03:22;0.60;16.50
36924;DHT22;22841;50.252;18.688;2023-03-03T00:05:49;0.60;14.20
36924;DHT22;22841;50.252;18.688;2023-03-03T00:08:16;0.60;16.50
36924;DHT22;22841;50.252;18.688;2023-03-03T00:10:42;0.60;15.80
36924;DHT22;22841;50.252;18.688;2023-03-03T00:13:21;0.50;18.40
36924;DHT22;22841;50.252;18.688;2023-03-03T00:15:48;0.50;14.60
36924;DHT22;22841;50.252;18.688;2023-03-03T00:18:32;0.50;15.40
36924;DHT22;22841;50.252;18.688;2023-03-03T00:21:02;0.50;13.50
36924;DHT22;22841;50.252;18.688;2023-03-03T00:23:39;0.50;13.70
36924;DHT22;22841;50.252;18.688;2023-03-03T00:28:47;0.40;18.50
36924;DHT22;22841;50.252;18.688;2023-03-03T00:31:17;0.30;20.70
36924;DHT22;22841;50.252;18.688;2023-03-03T00:33:51;0.30;25.60
36924;DHT22;22841;50.252;18.688;2023-03-03T00:38:53;0.40;18.20
36924;DHT22;22841;50.252;18.688;2023-03-03T00:41:23;0.30;14.90
36924;DHT22;22841;50.252;18.688;2023-03-03T00:43:51;0.30;18.00
36924;DHT22;22841;50.252;18.688;2023-03-03T00:46:19;0.30;18.80
36924;DHT22;22841;50.252;18.688;2023-03-03T00:48:47;0.30;13.30
36924;DHT22;22841;50.252;18.688;2023-03-03T00:53:48;0.30;17.50
36924;DHT22;22841;50.252;18.688;2023-03-03T00:56:15;0.20;16.80
36924;DHT22;22841;50.252;18.688;2023-03-03T00:58:41;0.20;18.70
36924;DHT22;22841;50.252;18.688;2023-03-03T01:01:10;0.10;16.00
36924;DHT22;22841;50.252;18.688;2023-03-03T01:03:36;0.20;17.50
36924;DHT22;22841;50.252;18.688;2023-03-03T01:06:03;0.10;15.10
36924;DHT22;22841;50.252;18.688;2023-03-03T01:08:29;0.10;16.30
36924;DHT22;22841;50.252;18.688;2023-03-03T01:10:57;0.10;17.20
36924;DHT22;22841;50.252;18.688;2023-03-03T01:13:30;0.00;16.70
36924;DHT22;22841;50.252;18.688;2023-03-03T01:15:58;-0.10;12.90
36924;DHT22;22841;50.252;18.688;2023-03-03T01:18:24;-0.20;18.60
36924;DHT22;22841;50.252;18.688;2023-03-03T01:20:50;-0.30;25.30
36924;DHT22;22841;50.252;18.688;2023-03-03T01:23:16;-0.20;27.60
36924;DHT22;22841;50.252;18.688;2023-03-03T01:25:42;-0.20;20.90
36924;DHT22;22841;50.252;18.688;2023-03-03T01:28:09;-0.20;23.50
36924;DHT22;22841;50.252;18.688;2023-03-03T01:30:35;-0.20;21.20
36924;DHT22;22841;50.252;18.688;2023-03-03T01:33:01;-0.20;22.90
36924;DHT22;22841;50.252;18.688;2023-03-03T01:35:27;-0.20;22.40
36924;DHT22;22841;50.252;18.688;2023-03-03T01:37:55;-0.20;22.20
36924;DHT22;22841;50.252;18.688;2023-03-03T01:40:24;-0.20;22.10
36924;DHT22;22841;50.252;18.688;2023-03-03T01:42:51;-0.20;24.20
36924;DHT22;22841;50.252;18.688;2023-03-03T01:45:27;-0.20;23.10
36924;DHT22;22841;50.252;18.688;2023-03-03T01:50:33;-0.20;20.80
36924;DHT22;22841;50.252;18.688;2023-03-03T01:53:03;-0.20;24.60
36924;DHT22;22841;50.252;18.688;2023-03-03T01:55:33;-0.30;27.90
36924;DHT22;22841;50.252;18.688;2023-03-03T01:58:11;-0.30;32.60
36924;DHT22;22841;50.252;18.688;2023-03-03T02:00:41;-0.30;33.20
36924;DHT22;22841;50.252;18.688;2023-03-03T02:03:10;-0.40;28.00
36924;DHT22;22841;50.252;18.688;2023-03-03T02:05:37;-0.40;29.90
36924;DHT22;22841;50.252;18.688;2023-03-03T02:08:06;-0.40;28.20
36924;DHT22;22841;50.252;18.688;2023-03-03T02:10:34;-0.40;27.30
36924;DHT22;22841;50.252;18.688;2023-03-03T02:13:00;-0.50;28.00
36924;DHT22;22841;50.252;18.688;2023-03-03T02:15:32;-0.60;33.80
36924;DHT22;22841;50.252;18.688;2023-03-03T02:18:10;-0.50;33.90
36924;DHT22;22841;50.252;18.688;2023-03-03T02:23:42;-0.50;29.40
36924;DHT22;22841;50.252;18.688;2023-03-03T02:26:23;-0.50;26.50
36924;DHT22;22841;50.252;18.688;2023-03-03T02:28:49;-0.50;27.10
36924;DHT22;22841;50.252;18.688;2023-03-03T02:31:20;-0.50;29.10
36924;DHT22;22841;50.252;18.688;2023-03-03T02:33:48;-0.50;27.90
36924;DHT22;22841;50.252;18.688;2023-03-03T02:36:17;-0.50;31.60
36924;DHT22;22841;50.252;18.688;2023-03-03T02:44:09;-0.50;27.60
36924;DHT22;22841;50.252;18.688;2023-03-03T02:46:37;-0.50;27.20
36924;DHT22;22841;50.252;18.688;2023-03-03T02:49:05;-0.50;28.30
36924;DHT22;22841;50.252;18.688;2023-03-03T02:51:32;-0.60;28.40
36924;DHT22;22841;50.252;18.688;2023-03-03T02:53:58;-0.60;34.70
36924;DHT22;22841;50.252;18.688;2023-03-03T02:56:24;-0.60;33.70
36924;DHT22;22841;50.252;18.688;2023-03-03T02:58:50;-0.70;31.70
36924;DHT22;22841;50.252;18.688;2023-03-03T03:01:17;-0.70;35.40
36924;DHT22;22841;50.252;18.688;2023-03-03T03:03:43;-0.60;33.20
36924;DHT22;22841;50.252;18.688;2023-03-03T03:06:09;-0.70;29.40
36924;DHT22;22841;50.252;18.688;2023-03-03T03:08:35;-0.80;27.70
36924;DHT22;22841;50.252;18.688;2023-03-03T03:11:03;-0.80;34.90
36924;DHT22;22841;50.252;18.688;2023-03-03T03:13:31;-0.80;35.70
36924;DHT22;22841;50.252;18.688;2023-03-03T03:15:58;-0.80;41.00
36924;DHT22;22841;50.252;18.688;2023-03-03T03:18:25;-0.90;44.90
36924;DHT22;22841;50.252;18.688;2023-03-03T03:20:51;-0.90;39.50
36924;DHT22;22841;50.252;18.688;2023-03-03T03:23:17;-1.00;42.80
36924;DHT22;22841;50.252;18.688;2023-03-03T03:25:43;-1.00;48.40
36924;DHT22;22841;50.252;18.688;2023-03-03T03:28:37;-1.00;53.00
36924;DHT22;22841;50.252;18.688;2023-03-03T03:31:03;-1.10;58.00
36924;DHT22;22841;50.252;18.688;2023-03-03T03:33:30;-1.10;65.60
36924;DHT22;22841;50.252;18.688;2023-03-03T03:35:56;-1.10;66.70
36924;DHT22;22841;50.252;18.688;2023-03-03T03:38:23;-1.10;64.10
36924;DHT22;22841;50.252;18.688;2023-03-03T03:40:52;-1.10;68.20
36924;DHT22;22841;50.252;18.688;2023-03-03T03:43:19;-1.10;71.10
36924;DHT22;22841;50.252;18.688;2023-03-03T03:45:45;-1.10;73.40
36924;DHT22;22841;50.252;18.688;2023-03-03T03:48:11;-1.10;69.40
36924;DHT22;22841;50.252;18.688;2023-03-03T03:50:37;-1.10;73.40
36924;DHT22;22841;50.252;18.688;2023-03-03T03:53:04;-1.00;71.80
36924;DHT22;22841;50.252;18.688;2023-03-03T03:55:31;-1.00;65.40
36924;DHT22;22841;50.252;18.688;2023-03-03T03:57:58;-1.00;63.60
36924;DHT22;22841;50.252;18.688;2023-03-03T04:00:24;-1.00;68.60
36924;DHT22;22841;50.252;18.688;2023-03-03T04:02:51;-1.00;67.10
36924;DHT22;22841;50.252;18.688;2023-03-03T04:05:17;-1.10;72.80
36924;DHT22;22841;50.252;18.688;2023-03-03T04:07:43;-1.10;72.30
36924;DHT22;22841;50.252;18.688;2023-03-03T04:10:10;-1.10;71.30
36924;DHT22;22841;50.252;18.688;2023-03-03T04:12:36;-1.10;76.70
36924;DHT22;22841;50.252;18.688;2023-03-03T04:15:10;-1.10;80.60
36924;DHT22;22841;50.252;18.688;2023-03-03T04:17:37;-1.10;77.70
36924;DHT22;22841;50.252;18.688;2023-03-03T04:20:04;-1.10;72.20
36924;DHT22;22841;50.252;18.688;2023-03-03T04:22:31;-1.10;73.90
36924;DHT22;22841;50.252;18.688;2023-03-03T04:25:02;-1.00;73.00
36924;DHT22;22841;50.252;18.688;2023-03-03T04:27:36;-1.10;72.00
36924;DHT22;22841;50.252;18.688;2023-03-03T04:30:04;-1.10;71.50
36924;DHT22;22841;50.252;18.688;2023-03-03T04:32:31;-1.10;73.70
36924;DHT22;22841;50.252;18.688;2023-03-03T04:34:58;-1.00;69.20
36924;DHT22;22841;50.252;18.688;2023-03-03T04:37:25;-1.10;62.70
36924;DHT22;22841;50.252;18.688;2023-03-03T04:39:51;-1.20;67.40
36924;DHT22;22841;50.252;18.688;2023-03-03T04:42:17;-1.10;70.40
36924;DHT22;22841;50.252;18.688;2023-03-03T04:44:43;-1.10;69.10
36924;DHT22;22841;50.252;18.688;2023-03-03T04:47:09;-1.10;67.40
36924;DHT22;22841;50.252;18.688;2023-03-03T04:49:36;-1.10;68.60
36924;DHT22;22841;50.252;18.688;2023-03-03T04:52:02;-1.10;63.50
36924;DHT22;22841;50.252;18.688;2023-03-03T04:54:28;-1.10;61.20
36924;DHT22;22841;50.252;18.688;2023-03-03T04:56:54;-1.10;60.60
36924;DHT22;22841;50.252;18.688;2023-03-03T04:59:20;-1.10;60.00
36924;DHT22;22841;50.252;18.688;2023-03-03T05:01:46;-1.30;57.30
36924;DHT22;22841;50.252;18.688;2023-03-03T05:04:12;-1.30;67.10
36924;DHT22;22841;50.252;18.688;2023-03-03T05:06:38;-1.40;72.60
36924;DHT22;22841;50.252;18.688;2023-03-03T05:09:05;-1.50;79.60
36924;DHT22;22841;50.252;18.688;2023-03-03T05:11:31;-1.50;84.10
36924;DHT22;22841;50.252;18.688;2023-03-03T05:13:58;-1.60;88.40
36924;DHT22;22841;50.252;18.688;2023-03-03T05:16:24;-1.60;91.70
36924;DHT22;22841;50.252;18.688;2023-03-03T05:18:50;-1.50;94.00
36924;DHT22;22841;50.252;18.688;2023-03-03T05:21:16;-1.50;94.90
36924;DHT22;22841;50.252;18.688;2023-03-03T05:23:42;-1.50;95.60
36924;DHT22;22841;50.252;18.688;2023-03-03T05:26:08;-1.60;96.50
36924;DHT22;22841;50.252;18.688;2023-03-03T05:28:34;-1.60;96.60
36924;DHT22;22841;50.252;18.688;2023-03-03T05:31:00;-1.70;96.00
36924;DHT22;22841;50.252;18.688;2023-03-03T05:33:28;-1.60;96.80
36924;DHT22;22841;50.252;18.688;2023-03-03T05:35:55;-1.60;96.00
36924;DHT22;22841;50.252;18.688;2023-03-03T05:38:23;-1.70;96.90
36924;DHT22;22841;50.252;18.688;2023-03-03T05:40:49;-1.60;97.70
36924;DHT22;22841;50.252;18.688;2023-03-03T05:43:15;-1.70;97.10
36924;DHT22;22841;50.252;18.688;2023-03-03T05:45:41;-1.70;98.00
36924;DHT22;22841;50.252;18.688;2023-03-03T05:48:07;-1.70;98.70
36924;DHT22;22841;50.252;18.688;2023-03-03T05:50:36;-1.70;98.90
36924;DHT22;22841;50.252;18.688;2023-03-03T05:53:02;-1.70;98.90
36924;DHT22;22841;50.252;18.688;2023-03-03T05:55:28;-1.70;99.30
36924;DHT22;22841;50.252;18.688;2023-03-03T05:57:54;-1.70;99.50
36924;DHT22;22841;50.252;18.688;2023-03-03T06:00:21;-1.70;98.90
36924;DHT22;22841;50.252;18.688;2023-03-03T06:02:47;-1.60;98.50
36924;DHT22;22841;50.252;18.688;2023-03-03T06:05:13;-1.60;97.50
36924;DHT22;22841;50.252;18.688;2023-03-03T06:07:39;-1.60;96.40
36924;DHT22;22841;50.252;18.688;2023-03-03T06:10:06;-1.60;95.70
36924;DHT22;22841;50.252;18.688;2023-03-03T06:12:33;-1.60;96.00
36924;DHT22;22841;50.252;18.688;2023-03-03T06:14:59;-1.60;96.50
36924;DHT22;22841;50.252;18.688;2023-03-03T06:17:25;-1.50;97.10
36924;DHT22;22841;50.252;18.688;2023-03-03T06:19:51;-1.50;94.80
36924;DHT22;22841;50.252;18.688;2023-03-03T06:22:17;-1.50;94.70
36924;DHT22;22841;50.252;18.688;2023-03-03T06:24:43;-1.50;94.40
36924;DHT22;22841;50.252;18.688;2023-03-03T06:27:09;-1.50;95.00
36924;DHT22;22841;50.252;18.688;2023-03-03T06:29:35;-1.50;95.00
36924;DHT22;22841;50.252;18.688;2023-03-03T06:32:01;-1.50;94.00
36924;DHT22;22841;50.252;18.688;2023-03-03T06:34:27;-1.50;94.50
36924;DHT22;22841;50.252;18.688;2023-03-03T06:36:53;-1.40;95.70
36924;DHT22;22841;50.252;18.688;2023-03-03T06:39:19;-1.40;94.80
36924;DHT22;22841;50.252;18.688;2023-03-03T06:41:45;-1.40;94.40
36924;DHT22;22841;50.252;18.688;2023-03-03T06:44:12;-1.50;94.80
36924;DHT22;22841;50.252;18.688;2023-03-03T06:46:38;-1.60;95.90
36924;DHT22;22841;50.252;18.688;2023-03-03T06:49:04;-1.70;97.40
36924;DHT22;22841;50.252;18.688;2023-03-03T06:51:32;-1.70;99.50
36924;DHT22;22841;50.252;18.688;2023-03-03T06:54:12;-1.60;99.90
36924;DHT22;22841;50.252;18.688;2023-03-03T06:56:40;-1.50;99.90
36924;DHT22;22841;50.252;18.688;2023-03-03T06:59:32;-1.50;99.70
36924;DHT22;22841;50.252;18.688;2023-03-03T07:01:59;-1.50;97.60
36924;DHT22;22841;50.252;18.688;2023-03-03T07:04:30;-1.60;96.70
36924;DHT22;22841;50.252;18.688;2023-03-03T07:06:57;-1.70;96.00
36924;DHT22;22841;50.252;18.688;2023-03-03T07:09:28;-1.60;97.10
36924;DHT22;22841;50.252;18.688;2023-03-03T07:12:08;-1.50;97.40
36924;DHT22;22841;50.252;18.688;2023-03-03T07:14:43;-1.50;98.00
36924;DHT22;22841;50.252;18.688;2023-03-03T07:17:18;-1.40;97.20
36924;DHT22;22841;50.252;18.688;2023-03-03T07:19:45;-1.40;96.40
36924;DHT22;22841;50.252;18.688;2023-03-03T07:22:18;-1.40;95.70
36924;DHT22;22841;50.252;18.688;2023-03-03T07:28:15;-1.30;97.10
36924;DHT22;22841;50.252;18.688;2023-03-03T07:30:45;-1.40;97.80
36924;DHT22;22841;50.252;18.688;2023-03-03T07:35:53;-1.50;99.90
36924;DHT22;22841;50.252;18.688;2023-03-03T07:41:15;-1.50;99.90
36924;DHT22;22841;50.252;18.688;2023-03-03T07:46:46;-1.50;99.90
36924;DHT22;22841;50.252;18.688;2023-03-03T07:49:35;-1.40;99.90
36924;DHT22;22841;50.252;18.688;2023-03-03T07:52:22;-1.30;99.90
36924;DHT22;22841;50.252;18.688;2023-03-03T07:54:48;-1.20;99.90
36924;DHT22;22841;50.252;18.688;2023-03-03T07:57:33;-1.20;99.90
36924;DHT22;22841;50.252;18.688;2023-03-03T08:03:03;-1.10;99.90
36924;DHT22;22841;50.252;18.688;2023-03-03T08:05:37;-1.20;99.90
36924;DHT22;22841;50.252;18.688;2023-03-03T08:08:18;-1.20;99.90
36924;DHT22;22841;50.252;18.688;2023-03-03T08:18:49;-1.00;99.90
36924;DHT22;22841;50.252;18.688;2023-03-03T08:21:21;-1.00;99.90
36924;DHT22;22841;50.252;18.688;2023-03-03T08:23:49;-0.90;99.90
36924;DHT22;22841;50.252;18.688;2023-03-03T08:26:20;-0.90;99.90
36924;DHT22;22841;50.252;18.688;2023-03-03T08:44:22;-0.70;99.90
36924;DHT22;22841;50.252;18.688;2023-03-03T08:46:48;-0.70;99.90
36924;DHT22;22841;50.252;18.688;2023-03-03T08:49:14;-0.70;99.90
36924;DHT22;22841;50.252;18.688;2023-03-03T08:51:41;-0.70;99.90
36924;DHT22;22841;50.252;18.688;2023-03-03T08:54:08;-0.70;99.90
36924;DHT22;22841;50.252;18.688;2023-03-03T08:56:34;-0.70;99.90
36924;DHT22;22841;50.252;18.688;2023-03-03T08:59:00;-0.60;99.90
36924;DHT22;22841;50.252;18.688;2023-03-03T09:09:14;-0.60;99.90
36924;DHT22;22841;50.252;18.688;2023-03-03T09:11:40;-0.50;99.90
36924;DHT22;22841;50.252;18.688;2023-03-03T09:14:14;-0.40;99.90
36924;DHT22;22841;50.252;18.688;2023-03-03T09:16:50;-0.40;99.90
36924;DHT22;22841;50.252;18.688;2023-03-03T09:19:29;-0.40;99.90
36924;DHT22;22841;50.252;18.688;2023-03-03T09:22:18;-0.40;99.90
36924;DHT22;22841;50.252;18.688;2023-03-03T10:39:26;0.00;99.90
36924;DHT22;22841;50.252;18.688;2023-03-03T10:41:59;0.00;99.90
36924;DHT22;22841;50.252;18.688;2023-03-03T10:44:44;0.00;99.90
36924;DHT22;22841;50.252;18.688;2023-03-03T10:50:06;0.00;99.90
36924;DHT22;22841;50.252;18.688;2023-03-03T10:52:51;0.00;99.90
36924;DHT22;22841;50.252;18.688;2023-03-03T10:55:35;0.10;99.90
36924;DHT22;22841;50.252;18.688;2023-03-03T10:58:25;0.10;99.90
36924;DHT22;22841;50.252;18.688;2023-03-03T11:01:08;0.10;99.90
36924;DHT22;22841;50.252;18.688;2023-03-03T15:18:21;0.50;99.90
